Andrews Air Force Base
KADW : now visible

Airfield :











YOU CAN JOIN US ON...

 
LOGIN :

Register | Disclaimer

   EN    FR    IT 

 









Legend :    VFR   Marginal VFR   IFR   Intensive IFR   Very Intensive IFR
Visi :
Ceiling :
>= 8 km
>= 3000ft
5 to 8 km
1000 to 3000 ft
1500m to 5 km
500 to 1000 ft
800 to 1500m
200 to 500 ft
< 800m
< 200 ft
Symbols :   Thunderstorms  Fog  Heavy snow  Heavy precipitations  Wind > 20 kt






- Airport Elevation : 280 ft


KADW - Andrews Air Force Base

CURRENT METAR :
  • 122056Z 11007KT 10SM CLR 02/M08 A3064 RMK AO2A SLP386 T00221082 $

EXPIRED METARs :
  • 121956Z 11004KT 10SM CLR 03/M09 A3065 RMK SLP389
  • 121856Z 10007KT 10SM 04/M09 A3066 RMK SLP392

TAF TAF KADW
Valid from the 12 at 17:00 until the 13 at 23:00 UTC


121700Z 1217/1323 12006KT 9999 SKC QNH3060INS
BECMG 1302/1303 VRB06KT 9999 BKN030 QNH3057INS
BECMG 1314/1315 35005KT 9999 BKN015 OVC030 QNH3034INS
BECMG 1318/1319 35006KT 9000 -SHRA BKN008 OVC015 QNH3013INS
BECMG 1321/1322 03006KT 8000 -SHRA BKN005 OVC015 QNH3010INS TX04/1317Z TNM02/1303Z



MET'MAP, your aeronautical weather chart ! - Copyright ORBIFLY December 2007 - Disclaimer

ORBIFLY MET'MAP TEAM :

Programming & Development : Alexandra Zaïnal
Concept & original design : Baudouin d'Aumeries
Assistance for programming : Marc-Olivier Méhu
Technical & hardware support : Manuel Goepfert

Contact : metmap@orbifly.com




SOURCES & CREDITS :

   NOAA       Earth
Advisory